createdAt,value
2019-01-06T00:00:38.611Z,22.13
2019-01-06T00:06:05.718Z,18.20
2019-01-06T00:11:26.386Z,14.37
2019-01-06T00:16:56.783Z,13.20
2019-01-06T00:22:21.329Z,13.70
2019-01-06T00:27:45.477Z,15.10
2019-01-06T00:33:08.672Z,11.83
2019-01-06T00:38:38.773Z,10.37
2019-01-06T00:43:54.369Z,10.97
2019-01-06T00:49:18.541Z,11.53
2019-01-06T00:54:46.681Z,8.73
2019-01-06T01:00:13.550Z,9.87
2019-01-06T01:05:36.610Z,12.20
2019-01-06T01:10:57.651Z,11.83
2019-01-06T01:16:33.064Z,14.23
2019-01-06T01:22:01.304Z,10.13
2019-01-06T01:27:22.279Z,13.10
2019-01-06T01:32:41.951Z,9.47
2019-01-06T01:38:10.060Z,7.23
2019-01-06T01:43:39.076Z,8.40
2019-01-06T01:49:02.218Z,8.10
2019-01-06T01:54:38.342Z,9.87
2019-01-06T01:59:56.900Z,7.70
2019-01-06T02:05:20.897Z,8.73
2019-01-06T02:10:43.146Z,7.07
2019-01-06T02:16:08.451Z,8.93
2019-01-06T02:21:38.893Z,8.53
2019-01-06T02:27:02.249Z,7.83
2019-01-06T02:32:25.905Z,8.93
2019-01-06T02:37:53.911Z,7.50
2019-01-06T02:43:16.795Z,7.33
2019-01-06T02:48:40.246Z,9.17
2019-01-06T02:54:05.211Z,8.33
2019-01-06T02:59:48.133Z,8.23
2019-01-06T03:05:15.979Z,5.80
2019-01-06T03:10:43.298Z,7.67
2019-01-06T03:16:00.560Z,4.43
2019-01-06T03:21:25.088Z,7.40
2019-01-06T03:26:53.394Z,6.27
2019-01-06T03:32:16.419Z,5.73
2019-01-06T03:37:41.833Z,5.67
2019-01-06T03:43:24.498Z,7.80
2019-01-06T03:48:47.776Z,6.47
2019-01-06T03:54:10.720Z,6.83
2019-01-06T03:59:33.497Z,6.47
2019-01-06T04:05:01.161Z,5.17
2019-01-06T04:10:21.836Z,5.27
2019-01-06T04:15:48.968Z,4.67
2019-01-06T04:21:19.691Z,5.07
2019-01-06T04:26:52.795Z,4.67
2019-01-06T04:32:25.330Z,6.13
2019-01-06T04:37:48.366Z,3.80
2019-01-06T04:43:12.606Z,4.53
2019-01-06T04:48:42.835Z,4.80
2019-01-06T04:54:13.313Z,4.83
2019-01-06T04:59:45.993Z,3.43
2019-01-06T05:05:19.522Z,5.30
2019-01-06T05:10:50.841Z,4.67
2019-01-06T05:16:13.907Z,5.53
2019-01-06T05:21:44.318Z,6.60
2019-01-06T05:27:06.550Z,6.67
2019-01-06T05:32:29.437Z,5.90
2019-01-06T05:37:46.209Z,7.03
2019-01-06T05:43:12.254Z,6.00
2019-01-06T05:48:30.615Z,4.33
2019-01-06T05:53:53.723Z,7.40
2019-01-06T05:59:36.709Z,7.30
2019-01-06T06:05:19.363Z,6.17
2019-01-06T06:10:42.737Z,6.70
2019-01-06T06:16:13.497Z,6.23
2019-01-06T06:21:40.529Z,7.20
2019-01-06T06:26:59.030Z,6.90
2019-01-06T06:32:22.227Z,6.53
2019-01-06T06:37:58.322Z,8.93
2019-01-06T06:43:22.412Z,8.17
2019-01-06T06:48:46.842Z,7.93
2019-01-06T06:54:07.365Z,7.60
2019-01-06T06:59:32.417Z,6.53
2019-01-06T07:05:01.320Z,8.50
2019-01-06T07:10:28.257Z,10.30
2019-01-06T07:15:51.280Z,8.90
2019-01-06T07:21:18.592Z,6.80
2019-01-06T07:26:48.624Z,8.50
2019-01-06T07:32:12.416Z,9.30
2019-01-06T07:37:45.735Z,11.73
2019-01-06T07:43:19.707Z,9.27
2019-01-06T07:48:40.331Z,9.20
2019-01-06T07:54:04.412Z,9.27
2019-01-06T07:59:23.545Z,10.50
2019-01-06T08:05:02.724Z,9.30
2019-01-06T08:10:25.875Z,8.80
2019-01-06T08:15:49.516Z,10.23
2019-01-06T08:21:13.864Z,10.57
2019-01-06T08:26:37.038Z,11.27
2019-01-06T08:32:00.329Z,10.17
2019-01-06T08:37:27.353Z,8.97
2019-01-06T08:42:50.943Z,9.80
2019-01-06T08:48:14.058Z,9.47
2019-01-06T08:53:50.594Z,9.43
2019-01-06T08:59:10.918Z,11.27
2019-01-06T09:04:34.120Z,10.00
2019-01-06T09:10:02.374Z,8.07
2019-01-06T09:15:32.756Z,7.00
2019-01-06T09:21:09.980Z,8.27
2019-01-06T09:26:43.714Z,7.00
2019-01-06T09:32:07.805Z,8.90
2019-01-06T09:37:32.991Z,9.37
2019-01-06T09:43:10.056Z,7.30
2019-01-06T09:48:46.138Z,6.80
2019-01-06T09:54:06.867Z,7.07
2019-01-06T09:59:30.328Z,6.93
2019-01-06T10:05:12.656Z,8.30
2019-01-06T10:10:40.770Z,10.53
2019-01-06T10:16:04.923Z,7.90
2019-01-06T10:21:29.160Z,7.37
2019-01-06T10:26:58.852Z,8.57
2019-01-06T10:32:21.715Z,7.97
2019-01-06T10:37:39.519Z,10.73
2019-01-06T10:43:09.512Z,8.93
2019-01-06T10:48:25.692Z,9.20
2019-01-06T10:54:04.097Z,7.30
2019-01-06T10:59:26.868Z,8.30
2019-01-06T11:04:51.033Z,9.40
2019-01-06T11:10:13.785Z,7.90
2019-01-06T11:15:44.888Z,7.33
2019-01-06T11:21:11.890Z,9.23
2019-01-06T11:26:45.027Z,5.03
2019-01-06T11:32:08.163Z,5.77
2019-01-06T11:37:35.168Z,4.37
2019-01-06T11:42:58.247Z,4.53
2019-01-06T11:48:21.597Z,3.77
2019-01-06T11:53:44.800Z,5.43
2019-01-06T11:59:12.168Z,5.77
2019-01-06T12:04:35.145Z,6.20
2019-01-06T12:10:02.924Z,5.57
2019-01-06T12:15:26.305Z,5.07
2019-01-06T12:20:51.561Z,5.37
2019-01-06T12:26:28.777Z,4.13
2019-01-06T12:31:52.021Z,3.77
2019-01-06T12:37:15.000Z,7.63
2019-01-06T12:42:37.860Z,3.80
2019-01-06T12:48:01.192Z,4.70
2019-01-06T12:53:29.163Z,3.73
2019-01-06T12:58:47.009Z,5.03
2019-01-06T13:04:09.567Z,4.23
2019-01-06T13:09:53.992Z,3.30
2019-01-06T13:15:16.907Z,4.00
2019-01-06T13:20:41.957Z,3.90
2019-01-06T13:26:05.117Z,5.50
2019-01-06T13:31:29.548Z,6.37
2019-01-06T13:36:53.772Z,7.30
2019-01-06T13:42:13.705Z,5.90
2019-01-06T13:47:29.523Z,6.57
2019-01-06T13:52:58.519Z,7.30
2019-01-06T13:58:25.873Z,7.77
2019-01-06T14:03:49.425Z,9.33
2019-01-06T14:09:16.565Z,10.30
2019-01-06T14:14:56.021Z,8.63
2019-01-06T14:20:23.274Z,9.90
2019-01-06T14:25:56.353Z,9.90
2019-01-06T14:31:20.125Z,8.13
2019-01-06T14:36:38.754Z,12.77
2019-01-06T14:42:02.854Z,11.33
2019-01-06T14:47:26.041Z,10.53
2019-01-06T14:52:48.921Z,11.80
2019-01-06T14:58:12.288Z,12.10
2019-01-06T15:03:39.213Z,12.53
2019-01-06T15:09:09.648Z,15.70
2019-01-06T15:14:32.769Z,14.37
2019-01-06T15:19:56.177Z,12.50
2019-01-06T15:25:13.016Z,16.33
2019-01-06T15:30:37.189Z,14.13
2019-01-06T15:36:00.438Z,15.80
2019-01-06T15:41:23.822Z,14.23
2019-01-06T15:46:55.122Z,16.20
2019-01-06T15:52:18.368Z,20.03
2019-01-06T15:57:41.384Z,20.77
2019-01-06T16:03:21.070Z,18.83
2019-01-06T16:08:42.659Z,29.10
2019-01-06T16:14:05.664Z,24.70
2019-01-06T16:19:35.156Z,22.53
2019-01-06T16:24:58.670Z,27.10
2019-01-06T16:30:21.887Z,27.43
2019-01-06T16:35:45.144Z,30.50
2019-01-06T16:41:11.526Z,35.53
2019-01-06T16:46:54.301Z,56.90
2019-01-06T16:52:37.138Z,34.17
2019-01-06T16:58:02.645Z,35.00
2019-01-06T17:03:26.071Z,49.20
2019-01-06T17:08:49.696Z,47.83
2019-01-06T17:14:14.480Z,36.10
2019-01-06T17:19:48.374Z,34.73
2019-01-06T17:25:11.748Z,39.93
2019-01-06T17:30:42.362Z,38.70
2019-01-06T17:36:17.863Z,37.53
2019-01-06T17:41:51.708Z,41.83
2019-01-06T17:47:18.976Z,38.37
2019-01-06T17:52:49.511Z,37.47
2019-01-06T17:58:06.937Z,45.40
2019-01-06T18:03:34.642Z,49.07
2019-01-06T18:09:04.576Z,46.30
2019-01-06T18:14:18.659Z,61.60
2019-01-06T18:19:33.400Z,49.03
2019-01-06T18:24:56.481Z,43.73
2019-01-06T18:30:20.723Z,41.43
2019-01-06T18:35:38.974Z,37.67
2019-01-06T18:41:16.102Z,34.90
2019-01-06T18:46:40.357Z,35.37
2019-01-06T18:52:04.554Z,36.90
2019-01-06T18:57:27.970Z,35.77
2019-01-06T19:03:01.151Z,32.47
2019-01-06T19:08:29.546Z,37.23
2019-01-06T19:13:53.427Z,32.10
2019-01-06T19:19:16.424Z,36.13
2019-01-06T19:24:41.575Z,33.27
2019-01-06T19:30:25.185Z,31.20
2019-01-06T19:35:41.269Z,31.37
2019-01-06T19:41:24.458Z,32.33
2019-01-06T19:46:57.447Z,29.97
2019-01-06T19:52:17.356Z,32.47
2019-01-06T19:57:47.247Z,35.83
2019-01-06T20:03:19.299Z,31.17
2019-01-06T20:08:43.474Z,34.30
2019-01-06T20:14:02.323Z,30.77
2019-01-06T20:19:41.986Z,24.60
2019-01-06T20:25:03.223Z,28.70
2019-01-06T20:30:27.674Z,32.27
2019-01-06T20:35:50.600Z,32.13
2019-01-06T20:41:33.193Z,33.30
2019-01-06T20:46:57.397Z,29.83
2019-01-06T20:52:31.655Z,32.47
2019-01-06T20:57:58.006Z,36.73
2019-01-06T21:03:34.443Z,35.17
2019-01-06T21:08:57.244Z,38.47
2019-01-06T21:14:27.269Z,40.53
2019-01-06T21:19:54.285Z,29.97
2019-01-06T21:25:17.614Z,34.30
2019-01-06T21:30:41.794Z,37.23
2019-01-06T21:36:05.418Z,36.83
2019-01-06T21:41:38.716Z,49.10
2019-01-06T21:47:02.024Z,69.27
2019-01-06T21:52:18.535Z,117.40
2019-01-06T21:57:41.797Z,212.47
2019-01-06T22:03:03.977Z,41.33
2019-01-06T22:08:26.937Z,60.37
2019-01-06T22:13:42.322Z,44.43
2019-01-06T22:19:17.306Z,35.07
2019-01-06T22:24:59.947Z,40.73
2019-01-06T22:30:40.340Z,31.03
2019-01-06T22:36:07.627Z,28.90
2019-01-06T22:41:30.671Z,32.73
2019-01-06T22:46:49.620Z,26.57
2019-01-06T22:52:23.135Z,24.70
2019-01-06T22:57:43.874Z,27.60
2019-01-06T23:03:13.968Z,22.40
2019-01-06T23:08:35.230Z,18.60
2019-01-06T23:13:58.309Z,22.23
2019-01-06T23:19:19.229Z,19.07
2019-01-06T23:24:41.247Z,19.57
2019-01-06T23:30:17.654Z,83.30
2019-01-06T23:35:42.031Z,104.30
2019-01-06T23:41:09.617Z,15.83
2019-01-06T23:46:32.672Z,16.30
2019-01-06T23:52:00.200Z,8.97
2019-01-06T23:57:23.306Z,9.90
